Cedar Bluff, Virginia
Current Conditions -  °F | °C
As of 2:55 PM on Saturday 25 Oct 2014 (Local Time) from KJFZ Reporting Station
Scattered Clouds Scattered Clouds  
Wind Chill: 65°   Ceiling: Unl
Heat Index: 65°   Visibility: 10mi
Dew Point: 47°   Wind: 8mph
Humidity: 52%   Direction: 240°WSW
Pressure: 30.03"   Gusts: NA
Location:  37.09°N, 81.76°W
Report Text: KJFZ 251855Z AUTO 24007KT 10SM SCT050 SCT065 18/08 A3003 RMK AO2 T01820081
Loading
Personal Weather Stations






























Interactive Weather Map
Tropical Storm Tracking
New forecast layout! Learn more

10-Day Weather Forecast

Advertisements
Track Severe Weather on mobile